Time;durP1;ratioP1;P1;durP2;ratioP2;P2;SDS_P1;SDS_P2;PMS_P1;PMS_P2;Temp;Humidity;BMP_temperature;BMP_pressure;BME280_temperature;BME280_humidity;BME280_pressure;Samples;Min_cycle;Max_cycle;Signal;HPM_P1;HPM_P2
2021/07/30 00:01:12;;;;;;;;;;;;;;;16.44;nan;100163.44;4964477;28;19914;-86
2021/07/30 00:03:37;;;;;;;;;;;;;;;16.46;nan;100169.41;4981458;28;19925;-87
2021/07/30 00:06:02;;;;;;;;;;;;;;;16.50;nan;100159.16;4963796;28;19950;-86
2021/07/30 00:08:27;;;;;;;;;;;;;;;16.58;nan;100161.63;4963683;28;19918;-87
2021/07/30 00:10:54;;;;;;;;;;;;;;;16.57;nan;100162.69;4981950;28;19914;-87
2021/07/30 00:13:19;;;;;;;;;;;;;;;16.56;nan;100163.69;4976487;28;20000;-87
2021/07/30 00:15:44;;;;;;;;;;;;;;;16.53;nan;100162.25;4977892;28;19981;-87
2021/07/30 00:18:09;;;;;;;;;;;;;;;16.48;nan;100166.53;4980880;28;20403;-87
2021/07/30 00:20:35;;;;;;;;;;;;;;;16.47;nan;100167.53;4981246;28;20005;-87
2021/07/30 00:23:00;;;;;;;;;;;;;;;16.42;nan;100168.16;4949326;28;19929;-87
2021/07/30 00:25:25;;;;;;;;;;;;;;;16.33;nan;100167.50;4979413;28;19918;-87
2021/07/30 00:27:50;;;;;;;;;;;;;;;16.28;nan;100161.94;4980889;28;19937;-87
2021/07/30 00:30:16;;;;;;;;;;;;;;;16.29;nan;100168.09;4980552;28;19914;-87
2021/07/30 00:32:41;;;;;;;;;;;;;;;16.33;nan;100164.84;4963790;28;19957;-86
2021/07/30 00:35:06;;;;;;;;;;;;;;;16.50;nan;100161.81;4956020;28;19921;-87
2021/07/30 00:37:34;;;;;;;;;;;;;;;16.57;nan;100170.69;4963295;28;19914;-87
2021/07/30 00:39:59;;;;;;;;;;;;;;;16.62;nan;100170.09;4963505;28;19918;-87
2021/07/30 00:42:24;;;;;;;;;;;;;;;16.67;nan;100176.47;4963045;28;19985;-87
2021/07/30 00:44:49;;;;;;;;;;;;;;;16.68;nan;100170.09;4980513;28;19918;-86
2021/07/30 00:47:14;;;;;;;;;;;;;;;16.70;nan;100176.06;4965267;28;19914;-87
2021/07/30 00:49:40;;;;;;;;;;;;;;;16.71;nan;100177.72;4999874;28;19918;-87
2021/07/30 00:52:05;;;;;;;;;;;;;;;16.70;nan;100175.25;4982582;28;19968;-86
2021/07/30 00:54:31;;;;;;;;;;;;;;;16.68;nan;100174.59;4978819;28;19922;-86
2021/07/30 00:56:56;;;;;;;;;;;;;;;16.64;nan;100178.72;4978555;28;19925;-87
2021/07/30 00:59:22;;;;;;;;;;;;;;;16.60;nan;100172.94;4979172;28;19914;-86
2021/07/30 01:01:48;;;;;;;;;;;;;;;16.59;nan;100173.97;4979277;28;19918;-86
2021/07/30 01:04:13;;;;;;;;;;;;;;;16.61;nan;100169.25;4978311;28;20071;-86
2021/07/30 01:06:39;;;;;;;;;;;;;;;16.62;nan;100170.91;4973055;28;19944;-87
2021/07/30 01:09:04;;;;;;;;;;;;;;;16.56;nan;100167.19;4963022;28;20325;-87
2021/07/30 01:11:29;;;;;;;;;;;;;;;16.50;nan;100162.66;4980008;28;19996;-87
2021/07/30 01:13:54;;;;;;;;;;;;;;;16.53;nan;100164.91;4982114;28;19914;-86
2021/07/30 01:16:20;;;;;;;;;;;;;;;16.53;nan;100166.75;4992705;28;20097;-87
2021/07/30 01:18:45;;;;;;;;;;;;;;;16.54;nan;100165.72;4979388;28;19964;-86
2021/07/30 01:21:23;;;;;;;;;;;;;;;16.53;nan;100164.09;4978532;28;19973;-87
2021/07/30 01:23:48;;;;;;;;;;;;;;;16.51;nan;100163.47;4977738;28;20085;-86
2021/07/30 01:26:14;;;;;;;;;;;;;;;16.46;nan;100156.06;4979479;28;20402;-86
2021/07/30 01:28:39;;;;;;;;;;;;;;;16.43;nan;100145.78;4978559;28;19969;-87
2021/07/30 01:31:05;;;;;;;;;;;;;;;16.47;nan;100156.88;4978339;28;20380;-86
2021/07/30 01:33:30;;;;;;;;;;;;;;;16.46;nan;100152.56;4981731;28;20396;-86
2021/07/30 01:35:55;;;;;;;;;;;;;;;16.42;nan;100152.16;4979951;28;20054;-87
2021/07/30 01:38:20;;;;;;;;;;;;;;;16.42;nan;100153.97;4978575;28;19921;-86
2021/07/30 01:40:46;;;;;;;;;;;;;;;16.41;nan;100150.50;4961900;28;19914;-87
2021/07/30 01:43:11;;;;;;;;;;;;;;;16.37;nan;100151.91;4966994;28;19958;-86
2021/07/30 01:45:36;;;;;;;;;;;;;;;16.36;nan;100152.94;4977816;28;19914;-87
2021/07/30 01:48:01;;;;;;;;;;;;;;;16.32;nan;100154.34;4984294;28;20302;-86
2021/07/30 01:50:26;;;;;;;;;;;;;;;16.30;nan;100159.91;4971262;28;19914;-87
2021/07/30 01:52:52;;;;;;;;;;;;;;;16.30;nan;100159.06;4961766;28;19914;-87
2021/07/30 01:55:17;;;;;;;;;;;;;;;16.27;nan;100154.94;4961379;28;19953;-87
2021/07/30 01:57:42;;;;;;;;;;;;;;;16.28;nan;100158.44;4977952;28;19930;-87
2021/07/30 02:00:08;;;;;;;;;;;;;;;16.30;nan;100161.72;4978512;28;19937;-87
2021/07/30 02:02:33;;;;;;;;;;;;;;;16.32;nan;100154.34;4965236;28;19944;-87
2021/07/30 02:05:01;;;;;;;;;;;;;;;16.34;nan;100162.97;4977446;28;20041;-87
2021/07/30 02:07:26;;;;;;;;;;;;;;;16.35;nan;100156.63;4978099;28;19954;-86
2021/07/30 02:09:51;;;;;;;;;;;;;;;16.38;nan;100153.56;4979459;28;19914;-87
2021/07/30 02:12:16;;;;;;;;;;;;;;;16.43;nan;100151.13;4961264;28;19920;-87
2021/07/30 02:14:42;;;;;;;;;;;;;;;16.44;nan;100155.41;4981090;28;19957;-87
2021/07/30 02:17:07;;;;;;;;;;;;;;;16.42;nan;100143.31;4975486;28;19914;-86
2021/07/30 02:19:32;;;;;;;;;;;;;;;16.45;nan;100145.59;4961553;28;19921;-87
2021/07/30 02:21:57;;;;;;;;;;;;;;;16.42;nan;100149.50;4961853;28;19973;-87
2021/07/30 02:24:24;;;;;;;;;;;;;;;16.41;nan;100150.50;4978572;28;19972;-86
2021/07/30 02:26:49;;;;;;;;;;;;;;;16.33;nan;100140.81;4961158;28;19998;-87
2021/07/30 02:29:14;;;;;;;;;;;;;;;16.24;nan;100150.00;4961822;28;20038;-87
2021/07/30 02:31:39;;;;;;;;;;;;;;;16.14;nan;100150.38;4961176;28;20269;-87
2021/07/30 02:34:05;;;;;;;;;;;;;;;16.15;nan;100148.53;4978633;28;20373;-87
2021/07/30 02:36:30;;;;;;;;;;;;;;;16.19;nan;100135.63;4961259;28;19953;-87
2021/07/30 02:38:55;;;;;;;;;;;;;;;16.18;nan;100136.63;4979113;28;19914;-87
2021/07/30 02:41:21;;;;;;;;;;;;;;;16.10;nan;100138.44;4961645;28;20286;-88
2021/07/30 02:43:46;;;;;;;;;;;;;;;16.05;nan;100140.88;4961216;28;19918;-88
2021/07/30 02:46:14;;;;;;;;;;;;;;;15.97;nan;100138.41;4960450;28;20421;-88
2021/07/30 02:48:39;;;;;;;;;;;;;;;15.91;nan;100139.97;4974771;28;20357;-88
2021/07/30 02:51:04;;;;;;;;;;;;;;;15.81;nan;100139.53;4977640;28;19974;-87
2021/07/30 02:53:29;;;;;;;;;;;;;;;15.75;nan;100142.13;4970031;28;20346;-87
2021/07/30 02:55:55;;;;;;;;;;;;;;;15.68;nan;100142.06;4961333;28;19914;-87
2021/07/30 02:58:20;;;;;;;;;;;;;;;15.66;nan;100141.41;4961320;28;19942;-87
2021/07/30 03:00:45;;;;;;;;;;;;;;;15.63;nan;100126.63;4961336;28;19914;-87
2021/07/30 03:03:10;;;;;;;;;;;;;;;15.59;nan;100124.56;4978389;28;20413;-87
2021/07/30 03:05:36;;;;;;;;;;;;;;;15.60;nan;100129.69;4960640;28;20277;-87
2021/07/30 03:08:01;;;;;;;;;;;;;;;15.62;nan;100129.53;4967152;28;19941;-87
2021/07/30 03:10:26;;;;;;;;;;;;;;;15.62;nan;100122.34;4977143;28;19945;-86
2021/07/30 03:12:51;;;;;;;;;;;;;;;15.65;nan;100121.94;4945919;28;20297;-87
2021/07/30 03:15:17;;;;;;;;;;;;;;;15.76;nan;100112.63;4961298;28;19914;-87
2021/07/30 03:17:42;;;;;;;;;;;;;;;15.74;nan;100105.84;4961368;28;19926;-87
2021/07/30 03:20:08;;;;;;;;;;;;;;;15.75;nan;100105.63;4960656;28;19977;-87
2021/07/30 03:22:33;;;;;;;;;;;;;;;15.75;nan;100105.63;4962096;28;19969;-87
2021/07/30 03:24:58;;;;;;;;;;;;;;;15.75;nan;100100.31;4966071;28;19984;-86
2021/07/30 03:27:24;;;;;;;;;;;;;;;15.74;nan;100101.34;4978615;28;19918;-87
2021/07/30 03:29:50;;;;;;;;;;;;;;;15.71;nan;100094.56;4947592;28;19918;-88
2021/07/30 03:32:15;;;;;;;;;;;;;;;15.70;nan;100100.06;4961848;28;19920;-87
2021/07/30 03:34:46;;;;;;;;;;;;;;;15.66;nan;100098.78;4951128;28;20009;-87
2021/07/30 03:37:11;;;;;;;;;;;;;;;15.61;nan;100095.88;4978534;28;19925;-88
2021/07/30 03:39:36;;;;;;;;;;;;;;;15.58;nan;100104.25;4978947;28;19914;-87
2021/07/30 03:42:02;;;;;;;;;;;;;;;15.55;nan;100096.66;4978822;28;19968;-88
2021/07/30 03:44:27;;;;;;;;;;;;;;;15.48;nan;100096.63;4978372;28;20385;-87
2021/07/30 03:46:52;;;;;;;;;;;;;;;15.42;nan;100100.03;4979617;28;19918;-87
2021/07/30 03:49:18;;;;;;;;;;;;;;;15.36;nan;100093.66;4980218;28;20001;-87
2021/07/30 03:51:43;;;;;;;;;;;;;;;15.35;nan;100099.16;4981477;28;19914;-87
2021/07/30 03:54:09;;;;;;;;;;;;;;;15.33;nan;100096.72;4979092;28;19918;-87
2021/07/30 03:56:36;;;;;;;;;;;;;;;15.42;nan;100100.03;4977461;28;19914;-87
2021/07/30 03:59:02;;;;;;;;;;;;;;;15.45;nan;100100.50;4981539;28;20394;-87
2021/07/30 04:01:27;;;;;;;;;;;;;;;15.47;nan;100102.97;4963942;28;20002;-87
2021/07/30 04:03:52;;;;;;;;;;;;;;;15.53;nan;100090.72;4964442;28;19914;-87
2021/07/30 04:06:17;;;;;;;;;;;;;;;15.57;nan;100097.31;4963348;28;19914;-87
2021/07/30 04:08:43;;;;;;;;;;;;;;;15.53;nan;100094.19;4981718;28;19914;-87
2021/07/30 04:11:08;;;;;;;;;;;;;;;15.56;nan;100100.97;4964077;28;19921;-88
2021/07/30 04:13:34;;;;;;;;;;;;;;;15.50;nan;100100.72;4968948;28;20289;-87
2021/07/30 04:16:03;;;;;;;;;;;;;;;15.47;nan;100094.97;4978149;28;20130;-86
2021/07/30 04:18:28;;;;;;;;;;;;;;;15.43;nan;100099.03;4979337;28;19914;-87
2021/07/30 04:20:53;;;;;;;;;;;;;;;15.41;nan;100098.41;4980859;28;19914;-87
2021/07/30 04:23:18;;;;;;;;;;;;;;;15.44;nan;100100.69;4974340;28;19918;-86
2021/07/30 04:25:43;;;;;;;;;;;;;;;15.47;nan;100095.81;4979650;28;19914;-87
2021/07/30 04:28:09;;;;;;;;;;;;;;;15.49;nan;100093.78;4980690;28;19913;-86
2021/07/30 04:30:34;;;;;;;;;;;;;;;15.49;nan;100099.09;4979905;28;20034;-87
2021/07/30 04:32:59;;;;;;;;;;;;;;;15.54;nan;100101.19;4979483;28;20340;-87
2021/07/30 04:35:24;;;;;;;;;;;;;;;15.58;nan;100104.25;4979378;28;19933;-87
2021/07/30 04:37:50;;;;;;;;;;;;;;;15.53;nan;100096.84;4969623;28;19942;-87
2021/07/30 04:40:15;;;;;;;;;;;;;;;15.56;nan;100092.97;4962577;28;19918;-87
2021/07/30 04:42:40;;;;;;;;;;;;;;;15.63;nan;100096.50;4963412;28;19929;-87
2021/07/30 04:45:06;;;;;;;;;;;;;;;15.71;nan;100091.06;4963144;28;20433;-87
2021/07/30 04:47:31;;;;;;;;;;;;;;;15.75;nan;100097.63;4963315;28;19938;-88
2021/07/30 04:49:56;;;;;;;;;;;;;;;15.81;nan;100096.88;4980797;28;19914;-87
2021/07/30 04:52:21;;;;;;;;;;;;;;;15.88;nan;100095.06;4962727;28;19914;-87
2021/07/30 04:54:47;;;;;;;;;;;;;;;15.96;nan;100093.25;4968657;28;20181;-87
2021/07/30 04:57:12;;;;;;;;;;;;;;;16.02;nan;100101.28;4978598;28;20313;-87
2021/07/30 04:59:37;;;;;;;;;;;;;;;16.06;nan;100101.69;4963337;28;19973;-87
2021/07/30 05:02:02;;;;;;;;;;;;;;;16.09;nan;100101.31;4962978;28;19918;-87
2021/07/30 05:04:28;;;;;;;;;;;;;;;16.19;nan;100100.94;4962613;28;20289;-87
2021/07/30 05:06:53;;;;;;;;;;;;;;;16.33;nan;100095.47;4947022;28;20045;-87
2021/07/30 05:09:18;;;;;;;;;;;;;;;16.48;nan;100097.16;4971978;28;19918;-87
2021/07/30 05:11:44;;;;;;;;;;;;;;;16.63;nan;100092.44;4978944;28;20385;-86
2021/07/30 05:14:09;;;;;;;;;;;;;;;16.74;nan;100102.53;4971513;28;19925;-86
2021/07/30 05:16:34;;;;;;;;;;;;;;;16.82;nan;100100.75;4962521;28;20258;-86
2021/07/30 05:19:00;;;;;;;;;;;;;;;16.95;nan;100098.09;4967233;28;19928;-86
2021/07/30 05:21:26;;;;;;;;;;;;;;;17.14;nan;100105.31;4978752;28;20483;-86
2021/07/30 05:23:51;;;;;;;;;;;;;;;17.26;nan;100100.16;4978534;28;19941;-86
2021/07/30 05:26:16;;;;;;;;;;;;;;;17.33;nan;100095.63;4972564;28;20388;-87
2021/07/30 05:28:41;;;;;;;;;;;;;;;17.29;nan;100096.25;4962463;28;20286;-87
2021/07/30 05:31:12;;;;;;;;;;;;;;;17.26;nan;100091.34;4979539;28;19918;-87
2021/07/30 05:33:37;;;;;;;;;;;;;;;17.23;nan;100091.72;4946814;28;19914;-87
2021/07/30 05:36:03;;;;;;;;;;;;;;;17.21;nan;100089.28;4961794;28;19933;-87
2021/07/30 05:38:28;;;;;;;;;;;;;;;17.23;nan;100081.84;4979591;28;19914;-87
2021/07/30 05:40:53;;;;;;;;;;;;;;;17.37;nan;100080.81;4962240;28;19945;-86
2021/07/30 05:43:18;;;;;;;;;;;;;;;17.66;nan;100084.06;4962494;28;19918;-87
2021/07/30 05:45:44;;;;;;;;;;;;;;;17.88;nan;100082.00;4962554;28;20000;-87
2021/07/30 05:48:09;;;;;;;;;;;;;;;18.16;nan;100089.72;4961187;28;19921;-86
2021/07/30 05:50:34;;;;;;;;;;;;;;;18.49;nan;100085.22;4961487;28;19914;-86
2021/07/30 05:52:59;;;;;;;;;;;;;;;18.74;nan;100085.31;4971091;28;20004;-87
2021/07/30 05:55:24;;;;;;;;;;;;;;;19.08;nan;100086.72;4978985;28;19918;-87
2021/07/30 05:57:50;;;;;;;;;;;;;;;19.52;nan;100085.72;4978652;28;19957;-87
2021/07/30 06:00:15;;;;;;;;;;;;;;;19.94;nan;100085.09;4960473;28;19925;-87
2021/07/30 06:02:40;;;;;;;;;;;;;;;20.01;nan;100080.47;4968193;28;19922;-87
2021/07/30 06:05:06;;;;;;;;;;;;;;;20.54;nan;100089.69;4976971;28;19975;-87
2021/07/30 06:07:31;;;;;;;;;;;;;;;21.10;nan;100096.53;4977611;28;19969;-87
2021/07/30 06:09:57;;;;;;;;;;;;;;;21.45;nan;100085.00;4977674;28;19918;-87
2021/07/30 06:12:22;;;;;;;;;;;;;;;21.73;nan;100086.97;4976136;28;19924;-88
2021/07/30 06:14:47;;;;;;;;;;;;;;;22.10;nan;100088.56;4976939;28;19917;-88
2021/07/30 06:17:13;;;;;;;;;;;;;;;21.92;nan;100098.41;4974848;28;20377;-88
2021/07/30 06:19:38;;;;;;;;;;;;;;;22.15;nan;100091.34;4961254;28;19976;-88
2021/07/30 06:22:03;;;;;;;;;;;;;;;22.29;nan;100090.06;4961126;28;19925;-87
2021/07/30 06:24:29;;;;;;;;;;;;;;;22.73;nan;100089.50;4960611;28;19917;-88
2021/07/30 06:26:54;;;;;;;;;;;;;;;23.11;nan;100091.53;4960265;28;19920;-87
2021/07/30 06:29:19;;;;;;;;;;;;;;;23.57;nan;100094.09;4978432;28;19924;-87
2021/07/30 06:31:44;;;;;;;;;;;;;;;23.97;nan;100085.75;4978278;28;19918;-86
2021/07/30 06:34:09;;;;;;;;;;;;;;;23.91;nan;100087.59;4977927;28;19981;-87
2021/07/30 06:36:35;;;;;;;;;;;;;;;23.89;nan;100087.00;4977150;28;19925;-87
2021/07/30 06:39:00;;;;;;;;;;;;;;;24.11;nan;100086.19;4973232;28;19918;-87
2021/07/30 06:41:25;;;;;;;;;;;;;;;24.56;nan;100091.31;4977870;28;20378;-87
2021/07/30 06:43:51;;;;;;;;;;;;;;;25.07;nan;100085.53;4977938;28;19965;-87
2021/07/30 06:46:16;;;;;;;;;;;;;;;25.42;nan;100092.31;4975525;28;20060;-88
2021/07/30 06:48:41;;;;;;;;;;;;;;;25.70;nan;100087.63;4992457;28;20421;-87
2021/07/30 06:51:09;;;;;;;;;;;;;;;25.83;nan;100087.94;4970417;28;19936;-88
2021/07/30 06:53:34;;;;;;;;;;;;;;;26.18;nan;100081.06;4978180;28;19920;-88
2021/07/30 06:56:07;;;;;;;;;;;;;;;26.41;nan;100087.09;4965824;28;20308;-88
2021/07/30 06:58:32;;;;;;;;;;;;;;;26.55;nan;100084.72;4977887;28;19914;-88
2021/07/30 07:00:57;;;;;;;;;;;;;;;26.64;nan;100075.78;4968042;28;19925;-88
2021/07/30 07:03:25;;;;;;;;;;;;;;;26.64;nan;100083.91;4977439;28;20413;-88
2021/07/30 07:05:50;;;;;;;;;;;;;;;26.36;nan;100071.66;4965401;28;19922;-89
2021/07/30 07:08:16;;;;;;;;;;;;;;;26.74;nan;100080.41;4959690;28;19994;-88
2021/07/30 07:10:41;;;;;;;;;;;;;;;27.20;nan;100083.16;4977922;28;19971;-86
2021/07/30 07:13:06;;;;;;;;;;;;;;;27.45;nan;100076.84;4972880;28;19925;-86
2021/07/30 07:15:31;;;;;;;;;;;;;;;27.38;nan;100075.50;4976996;28;19936;-85
2021/07/30 07:17:56;;;;;;;;;;;;;;;27.29;nan;100070.66;4976375;28;19914;-85
2021/07/30 07:20:22;;;;;;;;;;;;;;;27.77;nan;100081.13;4968267;28;19972;-86
2021/07/30 07:22:47;;;;;;;;;;;;;;;28.26;nan;100064.06;4982060;28;19960;-86
2021/07/30 07:25:12;;;;;;;;;;;;;;;28.62;nan;100060.34;4966384;28;19924;-87
2021/07/30 07:27:37;;;;;;;;;;;;;;;28.87;nan;100060.13;4996379;28;19924;-87
2021/07/30 07:30:05;;;;;;;;;;;;;;;28.97;nan;100057.31;4983890;28;19929;-87
2021/07/30 07:32:31;;;;;;;;;;;;;;;28.69;nan;100053.47;4969392;28;19917;-88
2021/07/30 07:35:00;;;;;;;;;;;;;;;28.86;nan;100044.09;4969285;28;19925;-87
2021/07/30 07:37:25;;;;;;;;;;;;;;;28.65;nan;100043.44;4981130;28;19921;-87
2021/07/30 07:39:53;;;;;;;;;;;;;;;28.51;nan;100048.72;4975113;28;19917;-86
2021/07/30 07:42:18;;;;;;;;;;;;;;;28.50;nan;100052.53;4967615;28;19925;-87
2021/07/30 07:44:49;;;;;;;;;;;;;;;29.16;nan;100048.47;4964734;28;19925;-87
2021/07/30 07:47:14;;;;;;;;;;;;;;;29.37;nan;100044.44;4964261;28;19921;-87
2021/07/30 07:49:39;;;;;;;;;;;;;;;29.69;nan;100047.66;4968273;28;19917;-87
2021/07/30 07:52:04;;;;;;;;;;;;;;;29.61;nan;100043.63;4979665;28;19914;-89
2021/07/30 07:54:29;;;;;;;;;;;;;;;29.08;nan;100044.47;4967702;28;20177;-85
2021/07/30 07:56:57;;;;;;;;;;;;;;;29.13;nan;100041.69;4979810;28;19918;-86
2021/07/30 07:59:23;;;;;;;;;;;;;;;28.97;nan;100049.16;4980032;28;19917;-86
2021/07/30 08:01:48;;;;;;;;;;;;;;;29.56;nan;100039.06;4979388;28;19918;-87
2021/07/30 08:04:13;;;;;;;;;;;;;;;29.72;nan;100045.16;4967510;28;19983;-87
2021/07/30 08:06:38;;;;;;;;;;;;;;;29.66;nan;100043.56;4979016;28;19918;-87
2021/07/30 08:09:04;;;;;;;;;;;;;;;29.88;nan;100051.22;4962043;28;19968;-86
2021/07/30 08:11:29;;;;;;;;;;;;;;;30.16;nan;100041.31;4979851;28;20449;-86
2021/07/30 08:13:54;;;;;;;;;;;;;;;30.09;nan;100046.31;4968432;28;19964;-87
2021/07/30 08:16:23;;;;;;;;;;;;;;;30.11;nan;100046.03;4961002;28;19976;-87
2021/07/30 08:18:48;;;;;;;;;;;;;;;30.77;nan;100045.03;4962822;28;20269;-86
2021/07/30 08:21:13;;;;;;;;;;;;;;;30.78;nan;100043.13;4979813;28;19925;-87
2021/07/30 08:23:38;;;;;;;;;;;;;;;30.78;nan;100038.47;4979173;28;19918;-88
2021/07/30 08:26:04;;;;;;;;;;;;;;;31.01;nan;100041.38;4961703;28;19961;-88
2021/07/30 08:28:29;;;;;;;;;;;;;;;31.47;nan;100037.84;4961198;28;20009;-86
2021/07/30 08:30:54;;;;;;;;;;;;;;;31.47;nan;100033.19;4977673;28;20037;-88
2021/07/30 08:33:19;;;;;;;;;;;;;;;31.46;nan;100034.31;4986280;28;19981;-88
2021/07/30 08:35:44;;;;;;;;;;;;;;;32.14;nan;100040.03;4961768;28;19929;-87
2021/07/30 08:38:10;;;;;;;;;;;;;;;31.60;nan;100039.75;4978653;28;19925;-87
2021/07/30 08:40:37;;;;;;;;;;;;;;;31.51;nan;100039.69;4961322;28;19914;-88
2021/07/30 08:43:02;;;;;;;;;;;;;;;31.32;nan;100039.72;4978797;28;20205;-87
2021/07/30 08:45:27;;;;;;;;;;;;;;;31.61;nan;100037.84;4977727;28;20430;-88
2021/07/30 08:47:53;;;;;;;;;;;;;;;31.88;nan;100047.94;4978032;28;19918;-86
2021/07/30 08:50:18;;;;;;;;;;;;;;;32.08;nan;100033.03;4961356;28;19914;-87
2021/07/30 08:52:44;;;;;;;;;;;;;;;32.29;nan;100030.66;4978781;28;19914;-87
2021/07/30 08:55:13;;;;;;;;;;;;;;;32.87;nan;100037.19;4961399;28;19965;-87
2021/07/30 08:57:42;;;;;;;;;;;;;;;32.41;nan;100030.91;4978868;28;20267;-87
2021/07/30 09:00:09;;;;;;;;;;;;;;;32.62;nan;100025.78;4977192;28;19954;-87
2021/07/30 09:02:37;;;;;;;;;;;;;;;32.79;nan;100023.13;4975082;28;19926;-87
2021/07/30 09:05:21;;;;;;;;;;;;;;;32.98;nan;100022.13;4961153;28;19928;-87
2021/07/30 09:07:46;;;;;;;;;;;;;;;33.25;nan;100017.59;4975244;28;19922;-87
2021/07/30 09:10:11;;;;;;;;;;;;;;;33.42;nan;100014.94;4956903;28;19929;-89
2021/07/30 09:12:36;;;;;;;;;;;;;;;34.00;nan;100016.53;4959656;28;20017;-87
2021/07/30 09:15:19;;;;;;;;;;;;;;;33.15;nan;100016.75;4968625;28;20460;-87
2021/07/30 09:17:44;;;;;;;;;;;;;;;32.67;nan;100017.44;4976551;28;19969;-86
2021/07/30 09:20:10;;;;;;;;;;;;;;;32.43;nan;100012.25;4975404;28;19956;-88
2021/07/30 09:22:48;;;;;;;;;;;;;;;31.94;nan;100016.63;4976488;28;20436;-88
2021/07/30 09:25:30;;;;;;;;;;;;;;;31.39;nan;100022.91;4958725;28;20439;-87
2021/07/30 09:28:01;;;;;;;;;;;;;;;30.87;nan;100014.06;4958815;28;19926;-87
2021/07/30 09:30:26;;;;;;;;;;;;;;;30.40;nan;100003.06;4958161;28;19995;-87
2021/07/30 09:32:54;;;;;;;;;;;;;;;30.16;nan;100008.59;4980127;28;20377;-87
2021/07/30 09:35:23;;;;;;;;;;;;;;;30.06;nan;100006.03;4974028;28;19925;-87
2021/07/30 09:38:08;;;;;;;;;;;;;;;30.36;nan;100003.97;4958137;28;19960;-87
2021/07/30 09:40:33;;;;;;;;;;;;;;;30.30;nan;99994.25;4974910;28;19925;-87
2021/07/30 09:43:18;;;;;;;;;;;;;;;30.37;nan;100000.13;4972924;28;20305;-87
2021/07/30 09:45:44;;;;;;;;;;;;;;;30.41;nan;99990.22;4972134;28;19918;-86
2021/07/30 09:48:09;;;;;;;;;;;;;;;30.15;nan;99990.63;4985566;28;19925;-87
2021/07/30 09:50:34;;;;;;;;;;;;;;;30.50;nan;99996.63;4991411;28;19929;-87
2021/07/30 09:53:01;;;;;;;;;;;;;;;30.29;nan;99985.22;4972218;28;19929;-87
2021/07/30 09:55:27;;;;;;;;;;;;;;;29.86;nan;99985.28;4973666;28;19957;-87
2021/07/30 09:57:55;;;;;;;;;;;;;;;30.17;nan;99979.41;4973219;28;19960;-86
2021/07/30 10:00:20;;;;;;;;;;;;;;;29.84;nan;99979.31;4973885;28;19918;-88
2021/07/30 10:02:46;;;;;;;;;;;;;;;29.77;nan;99974.25;4976313;28;19922;-88
2021/07/30 10:05:15;;;;;;;;;;;;;;;29.99;nan;99978.31;4973239;28;19922;-88
2021/07/30 10:07:43;;;;;;;;;;;;;;;29.58;nan;99973.34;4975538;28;19918;-86
2021/07/30 10:12:42;;;;;;;;;;;;;;;29.59;nan;99964.09;4976741;28;20251;-86
2021/07/30 10:15:08;;;;;;;;;;;;;;;29.59;nan;99964.09;4974167;28;20008;-87
2021/07/30 10:17:34;;;;;;;;;;;;;;;29.33;nan;99964.41;4977982;28;19954;-87
2021/07/30 10:20:01;;;;;;;;;;;;;;;28.90;nan;99955.34;4977557;28;20004;-86
2021/07/30 10:22:35;;;;;;;;;;;;;;;29.04;nan;99950.03;4960101;28;19922;-86
2021/07/30 10:25:01;;;;;;;;;;;;;;;29.00;nan;99952.50;4966481;28;19921;-87
2021/07/30 10:27:27;;;;;;;;;;;;;;;28.55;nan;99949.91;4983976;28;19918;-86
2021/07/30 10:29:59;;;;;;;;;;;;;;;28.28;nan;99946.88;4979858;28;20183;-87
2021/07/30 10:32:43;;;;;;;;;;;;;;;28.64;nan;99952.03;4979532;28;19922;-88
2021/07/30 10:35:09;;;;;;;;;;;;;;;28.68;nan;99942.22;4968422;28;19918;-87
2021/07/30 10:37:38;;;;;;;;;;;;;;;28.64;nan;99938.44;4941167;29;20001;-88
2021/07/30 10:40:20;;;;;;;;;;;;;;;28.69;nan;99941.09;4952654;28;19914;-86
2021/07/30 10:43:04;;;;;;;;;;;;;;;28.75;nan;99942.69;4976429;28;19985;-87
2021/07/30 10:45:30;;;;;;;;;;;;;;;28.91;nan;99940.63;4942095;28;19981;-85
2021/07/30 10:48:11;;;;;;;;;;;;;;;28.90;nan;99928.91;4976975;28;19959;-86
2021/07/30 10:50:44;;;;;;;;;;;;;;;28.70;nan;99926.41;4977351;28;19918;-85
2021/07/30 10:53:28;;;;;;;;;;;;;;;28.38;nan;99917.69;4960578;28;19918;-88
2021/07/30 10:55:53;;;;;;;;;;;;;;;28.12;nan;99916.25;4976868;28;19923;-87
2021/07/30 10:58:19;;;;;;;;;;;;;;;28.07;nan;99921.75;4977032;28;19914;-87
2021/07/30 11:00:54;;;;;;;;;;;;;;;28.19;nan;99918.66;4959877;28;19914;-87
2021/07/30 11:03:21;;;;;;;;;;;;;;;28.08;nan;99926.91;4962116;28;20020;-86
2021/07/30 11:06:07;;;;;;;;;;;;;;;28.36;nan;99919.06;4976947;28;19929;-88
2021/07/30 11:08:52;;;;;;;;;;;;;;;28.16;nan;99920.84;4975339;28;19969;-86
2021/07/30 11:11:36;;;;;;;;;;;;;;;28.15;nan;99924.69;4976499;28;20427;-86
2021/07/30 11:14:05;;;;;;;;;;;;;;;28.41;nan;99916.28;4978389;28;19924;-86
2021/07/30 11:16:30;;;;;;;;;;;;;;;28.45;nan;99928.22;4975906;28;19928;-88
2021/07/30 11:18:57;;;;;;;;;;;;;;;28.55;nan;99916.47;4958882;28;20056;-86
2021/07/30 11:21:26;;;;;;;;;;;;;;;28.64;nan;99928.38;4957973;28;19918;-86
2021/07/30 11:23:51;;;;;;;;;;;;;;;28.79;nan;99921.97;4975147;28;19922;-86
2021/07/30 11:26:19;;;;;;;;;;;;;;;28.94;nan;99919.09;4974832;28;20000;-87
2021/07/30 11:28:48;;;;;;;;;;;;;;;28.65;nan;99913.69;4976049;28;20394;-86
2021/07/30 11:31:14;;;;;;;;;;;;;;;28.45;nan;99900.22;4975309;28;19918;-87
2021/07/30 11:33:41;;;;;;;;;;;;;;;28.53;nan;99911.34;4960054;28;19918;-86
2021/07/30 11:36:11;;;;;;;;;;;;;;;28.46;nan;99907.31;4974982;28;19957;-86
2021/07/30 11:38:50;;;;;;;;;;;;;;;28.47;nan;99901.59;4976822;28;19918;-87
2021/07/30 11:41:15;;;;;;;;;;;;;;;28.41;nan;99896.44;4957871;28;19950;-86
2021/07/30 11:43:59;;;;;;;;;;;;;;;28.73;nan;99904.06;4958725;28;19930;-87
2021/07/30 11:46:25;;;;;;;;;;;;;;;28.80;nan;99890.94;4972568;28;19926;-87
2021/07/30 11:48:51;;;;;;;;;;;;;;;28.84;nan;99885.72;4961458;28;19980;-87
2021/07/30 11:51:16;;;;;;;;;;;;;;;28.71;nan;99877.16;4969870;28;19921;-87
2021/07/30 11:53:42;;;;;;;;;;;;;;;28.80;nan;99869.97;4961462;28;19918;-89
2021/07/30 11:56:07;;;;;;;;;;;;;;;28.70;nan;99872.81;4976967;28;20394;-87
2021/07/30 11:58:32;;;;;;;;;;;;;;;28.43;nan;99870.59;4967008;28;19918;-86
2021/07/30 12:01:10;;;;;;;;;;;;;;;28.63;nan;99861.47;4963008;28;20385;-86
2021/07/30 12:03:35;;;;;;;;;;;;;;;28.70;nan;99853.78;4969403;28;19988;-87
2021/07/30 12:06:01;;;;;;;;;;;;;;;28.75;nan;99856.44;4961953;28;20345;-86
2021/07/30 12:08:26;;;;;;;;;;;;;;;28.82;nan;99856.09;4978085;28;20416;-86
2021/07/30 12:10:52;;;;;;;;;;;;;;;28.50;nan;99856.69;4963434;28;20066;-86
2021/07/30 12:13:18;;;;;;;;;;;;;;;28.23;nan;99851.75;4966959;28;19918;-87
2021/07/30 12:15:44;;;;;;;;;;;;;;;28.40;nan;99857.56;4993748;28;19920;-87
2021/07/30 12:18:09;;;;;;;;;;;;;;;28.68;nan;99849.72;4973153;28;20025;-87
2021/07/30 12:20:36;;;;;;;;;;;;;;;28.52;nan;99849.88;4979080;28;20033;-87
2021/07/30 12:23:06;;;;;;;;;;;;;;;28.52;nan;99841.72;4971190;28;20024;-90
2021/07/30 12:25:36;;;;;;;;;;;;;;;28.14;nan;99840.69;4994314;28;20376;-87
2021/07/30 12:28:08;;;;;;;;;;;;;;;28.28;nan;99829.97;4967959;28;19973;-87
2021/07/30 12:30:33;;;;;;;;;;;;;;;28.36;nan;99834.75;4980226;28;19921;-85
2021/07/30 12:32:59;;;;;;;;;;;;;;;28.80;nan;99831.88;4976668;28;19922;-88
2021/07/30 12:35:34;;;;;;;;;;;;;;;28.93;nan;99827.63;4977339;28;19921;-88
2021/07/30 12:38:02;;;;;;;;;;;;;;;28.68;nan;99819.78;4972980;28;19914;-86
2021/07/30 12:40:27;;;;;;;;;;;;;;;28.58;nan;99816.09;4963794;28;19920;-87
2021/07/30 12:43:09;;;;;;;;;;;;;;;28.67;nan;99818.97;4980116;28;19922;-87
2021/07/30 12:45:38;;;;;;;;;;;;;;;28.87;nan;99809.75;4980325;28;20304;-86
2021/07/30 12:48:04;;;;;;;;;;;;;;;28.81;nan;99808.19;4971534;28;19921;-86
2021/07/30 12:50:31;;;;;;;;;;;;;;;29.06;nan;99807.06;4977887;28;20333;-87
2021/07/30 12:53:13;;;;;;;;;;;;;;;28.95;nan;99811.81;4963104;28;19914;-87
2021/07/30 12:56:15;;;;;;;;;;;;;;;28.83;nan;99802.47;4977105;28;19922;-87
2021/07/30 12:58:53;;;;;;;;;;;;;;;28.74;nan;99785.97;4879249;29;19951;-87
2021/07/30 13:01:18;;;;;;;;;;;;;;;28.99;nan;99791.09;4953291;28;19920;-87